Time;durP1;ratioP1;P1;durP2;ratioP2;P2;SDS_P1;SDS_P2;PMS_P1;PMS_P2;Temp;Humidity;BMP_temperature;BMP_pressure;BME280_temperature;BME280_humidity;BME280_pressure;Samples;Min_cycle;Max_cycle;Signal;HPM_P1;HPM_P2
2023/04/27 00:00:00;;;;;;;1.65;1.55;;;;;;;;;;5015350;28;20570;-83
2023/04/27 00:02:28;;;;;;;1.60;1.50;;;;;;;;;;5015438;28;20290;-84
2023/04/27 00:04:55;;;;;;;1.50;1.40;;;;;;;;;;5014863;28;20874;-83
2023/04/27 00:07:25;;;;;;;1.65;1.50;;;;;;;;;;5015244;28;20298;-83
2023/04/27 00:09:52;;;;;;;1.65;1.55;;;;;;;;;;5015633;28;20230;-83
2023/04/27 00:12:20;;;;;;;2.08;1.88;;;;;;;;;;5015177;28;20233;-83
2023/04/27 00:14:47;;;;;;;2.38;1.80;;;;;;;;;;5015263;28;20251;-83
2023/04/27 00:17:15;;;;;;;1.40;1.30;;;;;;;;;;5015544;28;20290;-83
2023/04/27 00:19:43;;;;;;;2.03;1.75;;;;;;;;;;5015410;28;20286;-83
2023/04/27 00:22:10;;;;;;;3.33;1.80;;;;;;;;;;5015386;28;20199;-83
2023/04/27 00:24:40;;;;;;;1.48;1.30;;;;;;;;;;5015449;28;20242;-84
2023/04/27 00:27:08;;;;;;;1.50;1.40;;;;;;;;;;5015003;28;20203;-83
2023/04/27 00:29:35;;;;;;;1.52;1.42;;;;;;;;;;5016114;28;20577;-84
2023/04/27 00:32:03;;;;;;;2.80;1.48;;;;;;;;;;5018977;28;20313;-83
2023/04/27 00:34:30;;;;;;;2.03;1.83;;;;;;;;;;5019070;28;20273;-83
2023/04/27 00:36:58;;;;;;;2.20;1.77;;;;;;;;;;5019121;28;20294;-83
2023/04/27 00:39:26;;;;;;;1.98;1.77;;;;;;;;;;5019119;28;20238;-84
2023/04/27 00:41:54;;;;;;;3.80;1.70;;;;;;;;;;5019167;28;20195;-83
2023/04/27 00:44:25;;;;;;;2.13;1.60;;;;;;;;;;5018351;28;20266;-83
2023/04/27 00:46:53;;;;;;;1.75;1.65;;;;;;;;;;5018850;28;20210;-83
2023/04/27 00:49:21;;;;;;;3.25;2.08;;;;;;;;;;5018506;28;20202;-83
2023/04/27 00:51:48;;;;;;;1.80;1.52;;;;;;;;;;5018418;28;20608;-83
2023/04/27 00:54:17;;;;;;;1.60;1.50;;;;;;;;;;5018670;28;20310;-83
2023/04/27 00:56:45;;;;;;;1.95;1.42;;;;;;;;;;5018764;28;20664;-84
2023/04/27 00:59:14;;;;;;;2.20;2.00;;;;;;;;;;5018435;28;20207;-84
2023/04/27 01:01:41;;;;;;;1.80;1.70;;;;;;;;;;5017846;28;20242;-84
2023/04/27 01:04:09;;;;;;;1.73;1.63;;;;;;;;;;5018101;28;20258;-84
2023/04/27 01:06:36;;;;;;;2.38;1.83;;;;;;;;;;5018141;28;20574;-83
2023/04/27 01:09:04;;;;;;;2.13;1.90;;;;;;;;;;5018385;28;20258;-84
2023/04/27 01:11:32;;;;;;;2.13;1.98;;;;;;;;;;5018536;28;20226;-83
2023/04/27 01:14:04;;;;;;;1.50;1.40;;;;;;;;;;5018279;28;20286;-84
2023/04/27 01:16:34;;;;;;;1.80;1.70;;;;;;;;;;5018473;28;20206;-83
2023/04/27 01:19:01;;;;;;;1.52;1.42;;;;;;;;;;5018352;28;20652;-83
2023/04/27 01:21:29;;;;;;;1.70;1.60;;;;;;;;;;5017877;28;20376;-83
2023/04/27 01:23:58;;;;;;;1.60;1.50;;;;;;;;;;5017980;28;20199;-83
2023/04/27 01:26:26;;;;;;;2.03;1.83;;;;;;;;;;5018244;28;20207;-83
2023/04/27 01:28:53;;;;;;;1.83;1.58;;;;;;;;;;5017906;28;20242;-83
2023/04/27 01:31:21;;;;;;;3.22;1.65;;;;;;;;;;5018606;28;20309;-83
2023/04/27 01:33:48;;;;;;;2.10;1.60;;;;;;;;;;5017675;28;20253;-83
2023/04/27 01:36:16;;;;;;;2.97;1.83;;;;;;;;;;5018322;28;20298;-84
2023/04/27 01:38:43;;;;;;;1.63;1.52;;;;;;;;;;5017889;28;20286;-83
2023/04/27 01:41:12;;;;;;;1.80;1.60;;;;;;;;;;5016756;28;20634;-83
2023/04/27 01:43:40;;;;;;;2.10;1.90;;;;;;;;;;5017899;28;20203;-84
2023/04/27 01:46:09;;;;;;;2.83;1.98;;;;;;;;;;5018188;28;20223;-84
2023/04/27 01:48:37;;;;;;;2.60;2.40;;;;;;;;;;5018020;28;20226;-83
2023/04/27 01:51:04;;;;;;;2.10;1.90;;;;;;;;;;5017449;28;20198;-84
2023/04/27 01:53:32;;;;;;;1.75;1.65;;;;;;;;;;5017430;28;20294;-83
2023/04/27 01:56:00;;;;;;;2.17;2.00;;;;;;;;;;5017316;28;20219;-84
2023/04/27 01:58:29;;;;;;;1.70;1.60;;;;;;;;;;5017174;28;20214;-84
2023/04/27 02:00:57;;;;;;;2.45;1.88;;;;;;;;;;5017020;28;20644;-84
2023/04/27 02:03:24;;;;;;;2.10;2.00;;;;;;;;;;5016969;28;20270;-84
2023/04/27 02:05:52;;;;;;;1.92;1.80;;;;;;;;;;5017411;28;20253;-84
2023/04/27 02:08:20;;;;;;;2.28;2.00;;;;;;;;;;5017007;28;20298;-83
2023/04/27 02:10:47;;;;;;;2.20;1.88;;;;;;;;;;5016973;28;20203;-84
2023/04/27 02:13:15;;;;;;;1.60;1.50;;;;;;;;;;5016895;28;20231;-84
2023/04/27 02:15:43;;;;;;;2.42;1.75;;;;;;;;;;5017060;28;20243;-83
2023/04/27 02:18:11;;;;;;;2.10;1.95;;;;;;;;;;5016839;28;20246;-83
2023/04/27 02:20:38;;;;;;;1.48;1.38;;;;;;;;;;5017172;28;20241;-83
2023/04/27 02:23:06;;;;;;;1.83;1.73;;;;;;;;;;5017296;28;20543;-83
2023/04/27 02:25:36;;;;;;;4.00;2.03;;;;;;;;;;5016816;28;20215;-83
2023/04/27 02:28:03;;;;;;;2.35;2.17;;;;;;;;;;5016155;28;20613;-83
2023/04/27 02:30:31;;;;;;;1.65;1.55;;;;;;;;;;5016899;28;20698;-83
2023/04/27 02:33:01;;;;;;;2.15;1.55;;;;;;;;;;5016850;28;20277;-84
2023/04/27 02:35:28;;;;;;;1.70;1.60;;;;;;;;;;5017045;28;20310;-83
2023/04/27 02:37:56;;;;;;;1.80;1.70;;;;;;;;;;5016635;28;20735;-83
2023/04/27 02:40:23;;;;;;;2.65;2.30;;;;;;;;;;5016744;28;20227;-83
2023/04/27 02:42:51;;;;;;;5.18;2.08;;;;;;;;;;5017215;28;20544;-84
2023/04/27 02:45:19;;;;;;;3.05;2.22;;;;;;;;;;5016231;28;20234;-84
2023/04/27 02:47:46;;;;;;;3.65;2.47;;;;;;;;;;5016482;28;20644;-83
2023/04/27 02:50:15;;;;;;;2.60;2.40;;;;;;;;;;5016404;28;20699;-83
2023/04/27 02:52:42;;;;;;;2.38;2.17;;;;;;;;;;5015651;28;20763;-83
2023/04/27 02:55:10;;;;;;;2.42;2.22;;;;;;;;;;5016791;28;20680;-83
2023/04/27 02:57:38;;;;;;;2.78;2.40;;;;;;;;;;5015835;28;20238;-84
2023/04/27 03:00:08;;;;;;;3.65;3.25;;;;;;;;;;5016369;28;20242;-83
2023/04/27 03:02:35;;;;;;;5.13;3.00;;;;;;;;;;5016352;28;20199;-83
2023/04/27 03:05:04;;;;;;;2.50;2.30;;;;;;;;;;5016382;28;20223;-83
2023/04/27 03:07:32;;;;;;;3.20;2.78;;;;;;;;;;5016279;28;20207;-83
2023/04/27 03:10:00;;;;;;;3.10;2.80;;;;;;;;;;5015766;28;20237;-84
2023/04/27 03:12:27;;;;;;;3.08;2.80;;;;;;;;;;5015424;28;20249;-84
2023/04/27 03:14:55;;;;;;;5.03;2.95;;;;;;;;;;5016031;28;20257;-84
2023/04/27 03:17:22;;;;;;;2.80;2.55;;;;;;;;;;5015638;28;20325;-84
2023/04/27 03:19:50;;;;;;;2.45;2.25;;;;;;;;;;5015892;28;20253;-84
2023/04/27 03:22:18;;;;;;;2.80;2.55;;;;;;;;;;5015787;28;20662;-83
2023/04/27 03:24:46;;;;;;;3.55;3.25;;;;;;;;;;5015883;28;20313;-83
2023/04/27 03:27:14;;;;;;;3.03;2.63;;;;;;;;;;5016055;28;20290;-83
2023/04/27 03:29:41;;;;;;;3.50;2.50;;;;;;;;;;5015260;28;20629;-83
2023/04/27 03:32:09;;;;;;;3.17;2.22;;;;;;;;;;5016168;28;20213;-84
2023/04/27 03:34:36;;;;;;;2.47;2.28;;;;;;;;;;5015494;28;20257;-83
2023/04/27 03:37:05;;;;;;;2.55;2.22;;;;;;;;;;5015652;28;20195;-83
2023/04/27 03:39:32;;;;;;;3.75;2.70;;;;;;;;;;5016172;28;20226;-83
2023/04/27 03:42:02;;;;;;;3.50;2.40;;;;;;;;;;5015456;28;20233;-83
2023/04/27 03:44:32;;;;;;;1.90;1.80;;;;;;;;;;5015592;28;20269;-83
2023/04/27 03:47:00;;;;;;;1.98;1.88;;;;;;;;;;5016159;28;20679;-82
2023/04/27 03:49:27;;;;;;;1.77;1.67;;;;;;;;;;5015729;28;20203;-83
2023/04/27 03:51:55;;;;;;;2.33;2.13;;;;;;;;;;5015609;28;20230;-83
2023/04/27 03:54:22;;;;;;;2.10;2.00;;;;;;;;;;5014677;28;20227;-84
2023/04/27 03:56:50;;;;;;;2.40;2.20;;;;;;;;;;5016261;28;20282;-83
2023/04/27 03:59:19;;;;;;;2.72;2.53;;;;;;;;;;5014777;28;20297;-84
2023/04/27 04:01:46;;;;;;;2.85;1.80;;;;;;;;;;5015261;28;20207;-83
2023/04/27 04:04:14;;;;;;;2.50;2.30;;;;;;;;;;5015573;28;20787;-83
2023/04/27 04:06:41;;;;;;;1.83;1.65;;;;;;;;;;5019458;28;20205;-84
2023/04/27 04:09:09;;;;;;;2.30;2.10;;;;;;;;;;5019102;28;20245;-83
2023/04/27 04:11:36;;;;;;;2.53;2.08;;;;;;;;;;5019577;28;20207;-84
2023/04/27 04:14:04;;;;;;;2.25;2.15;;;;;;;;;;5019071;28;20309;-84
2023/04/27 04:16:34;;;;;;;2.60;2.40;;;;;;;;;;5019547;28;20207;-84
2023/04/27 04:19:01;;;;;;;3.40;2.33;;;;;;;;;;5018661;28;20197;-84
2023/04/27 04:21:30;;;;;;;3.08;2.40;;;;;;;;;;5018974;28;20237;-83
2023/04/27 04:23:58;;;;;;;3.50;2.60;;;;;;;;;;5019211;28;20718;-83
2023/04/27 04:26:26;;;;;;;3.65;3.30;;;;;;;;;;5018969;28;20241;-83
2023/04/27 04:28:53;;;;;;;2.95;2.65;;;;;;;;;;5019234;28;20301;-83
2023/04/27 04:31:21;;;;;;;5.82;4.03;;;;;;;;;;5019261;28;20238;-83
2023/04/27 04:33:50;;;;;;;4.30;3.90;;;;;;;;;;5018776;28;20754;-83
2023/04/27 04:36:18;;;;;;;3.20;2.72;;;;;;;;;;5019181;28;20198;-84
2023/04/27 04:38:46;;;;;;;4.47;3.55;;;;;;;;;;5018553;28;20210;-83
2023/04/27 04:41:13;;;;;;;4.40;3.42;;;;;;;;;;5019413;28;20286;-83
2023/04/27 04:43:41;;;;;;;5.05;3.58;;;;;;;;;;5018851;28;20238;-83
2023/04/27 04:46:08;;;;;;;4.00;3.60;;;;;;;;;;5022570;28;20719;-84
2023/04/27 04:48:36;;;;;;;4.05;3.65;;;;;;;;;;5018505;28;20687;-83
2023/04/27 04:51:07;;;;;;;5.10;4.30;;;;;;;;;;5019023;28;20195;-84
2023/04/27 04:53:34;;;;;;;4.60;3.85;;;;;;;;;;5018338;28;20298;-83
2023/04/27 04:56:09;;;;;;;4.63;4.00;;;;;;;;;;5018824;28;20317;-83
2023/04/27 04:58:37;;;;;;;4.13;3.70;;;;;;;;;;5018425;28;20220;-83
2023/04/27 05:01:04;;;;;;;5.97;3.88;;;;;;;;;;5018769;28;20294;-83
2023/04/27 05:03:32;;;;;;;5.13;3.90;;;;;;;;;;5018628;28;20281;-83
2023/04/27 05:05:59;;;;;;;5.82;4.03;;;;;;;;;;5018789;28;20230;-83
2023/04/27 05:08:28;;;;;;;6.55;4.35;;;;;;;;;;5019007;28;20294;-83
2023/04/27 05:10:56;;;;;;;6.28;3.55;;;;;;;;;;5018736;28;20285;-83
2023/04/27 05:13:24;;;;;;;5.68;4.00;;;;;;;;;;5018828;28;20742;-83
2023/04/27 05:15:52;;;;;;;6.70;4.20;;;;;;;;;;5019418;28;20231;-83
2023/04/27 05:18:20;;;;;;;7.57;4.65;;;;;;;;;;5019358;28;20656;-84
2023/04/27 05:20:47;;;;;;;4.78;4.28;;;;;;;;;;5019843;28;20662;-84
2023/04/27 05:23:15;;;;;;;7.30;4.22;;;;;;;;;;5020523;28;20249;-85
2023/04/27 05:25:43;;;;;;;5.53;4.45;;;;;;;;;;5020028;28;20234;-83
2023/04/27 05:28:11;;;;;;;4.63;4.22;;;;;;;;;;5019464;28;20209;-84
2023/04/27 05:30:39;;;;;;;5.43;4.57;;;;;;;;;;5020433;28;20703;-83
2023/04/27 05:33:06;;;;;;;7.95;4.82;;;;;;;;;;5019405;28;20656;-83
2023/04/27 05:35:34;;;;;;;7.68;4.75;;;;;;;;;;5018519;28;20233;-84
2023/04/27 05:38:02;;;;;;;7.28;4.97;;;;;;;;;;5029517;28;20218;-84
2023/04/27 05:40:30;;;;;;;6.15;4.40;;;;;;;;;;5021072;28;20195;-84
2023/04/27 05:43:02;;;;;;;5.63;4.70;;;;;;;;;;5018844;28;20294;-83
2023/04/27 05:45:29;;;;;;;7.72;4.82;;;;;;;;;;5019654;28;20218;-84
2023/04/27 05:47:57;;;;;;;7.07;4.93;;;;;;;;;;5018800;28;20389;-83
2023/04/27 05:50:24;;;;;;;7.10;5.68;;;;;;;;;;5018794;28;20196;-84
2023/04/27 05:52:52;;;;;;;6.03;4.70;;;;;;;;;;5019269;28;20643;-84
2023/04/27 05:55:19;;;;;;;5.68;4.85;;;;;;;;;;5018220;28;20706;-83
2023/04/27 05:57:47;;;;;;;6.20;4.53;;;;;;;;;;5018933;28;20241;-83
2023/04/27 06:00:18;;;;;;;4.68;4.20;;;;;;;;;;5018060;28;20589;-84
2023/04/27 06:02:46;;;;;;;5.18;4.28;;;;;;;;;;5018810;28;20199;-83
2023/04/27 06:05:13;;;;;;;4.38;3.92;;;;;;;;;;5018231;28;20226;-83
2023/04/27 06:07:42;;;;;;;5.85;5.05;;;;;;;;;;5017614;28;20219;-84
2023/04/27 06:10:11;;;;;;;6.75;4.80;;;;;;;;;;5017903;28;20214;-84
2023/04/27 06:12:38;;;;;;;4.90;4.40;;;;;;;;;;5017355;28;20738;-85
2023/04/27 06:15:08;;;;;;;5.20;4.70;;;;;;;;;;5018209;28;20309;-84
2023/04/27 06:17:38;;;;;;;5.20;4.47;;;;;;;;;;5017955;28;20202;-84
2023/04/27 06:20:08;;;;;;;5.93;4.75;;;;;;;;;;5017379;28;20203;-84
2023/04/27 06:22:36;;;;;;;4.80;4.07;;;;;;;;;;5017687;28;20230;-83
2023/04/27 06:25:30;;;;;;;4.55;3.63;;;;;;;;;;5018370;28;20218;-84
2023/04/27 06:27:58;;;;;;;5.47;3.83;;;;;;;;;;5016549;28;20257;-83
2023/04/27 06:30:36;;;;;;;4.20;3.80;;;;;;;;;;5017799;28;20289;-85
2023/04/27 06:33:05;;;;;;;5.30;4.13;;;;;;;;;;5017365;28;20622;-83
2023/04/27 06:35:33;;;;;;;6.13;4.13;;;;;;;;;;5016979;28;20223;-85
2023/04/27 06:38:00;;;;;;;3.78;3.40;;;;;;;;;;5017897;28;20302;-84
2023/04/27 06:40:27;;;;;;;4.15;3.67;;;;;;;;;;5016920;28;20237;-84
2023/04/27 06:42:55;;;;;;;3.33;3.03;;;;;;;;;;5016638;28;20235;-83
2023/04/27 06:45:22;;;;;;;4.88;3.33;;;;;;;;;;5016475;28;20219;-84
2023/04/27 06:47:50;;;;;;;2.75;2.40;;;;;;;;;;5016811;28;20245;-84
2023/04/27 06:50:19;;;;;;;10.23;3.92;;;;;;;;;;5017198;28;20295;-84
2023/04/27 06:52:46;;;;;;;4.00;3.60;;;;;;;;;;5016901;28;20698;-84
2023/04/27 06:55:14;;;;;;;5.28;3.83;;;;;;;;;;5016294;28;20658;-85
2023/04/27 06:57:41;;;;;;;3.65;3.30;;;;;;;;;;4971043;28;1350871;-84
2023/04/27 07:00:12;;;;;;;3.92;3.47;;;;;;;;;;5017647;28;20628;-84
2023/04/27 07:02:39;;;;;;;4.00;3.45;;;;;;;;;;5017554;28;20183;-84
2023/04/27 07:05:07;;;;;;;6.03;3.38;;;;;;;;;;5017145;28;20275;-85
2023/04/27 07:07:36;;;;;;;13.35;4.25;;;;;;;;;;5018179;28;20241;-85
2023/04/27 07:10:04;;;;;;;4.70;4.05;;;;;;;;;;5018234;28;20238;-85
2023/04/27 07:12:32;;;;;;;9.43;4.65;;;;;;;;;;5018148;28;20287;-85
2023/04/27 07:14:59;;;;;;;4.20;3.08;;;;;;;;;;5018152;28;20273;-85
2023/04/27 07:17:27;;;;;;;4.93;3.75;;;;;;;;;;5017548;28;20246;-85
2023/04/27 07:19:54;;;;;;;5.03;2.92;;;;;;;;;;5016190;28;20254;-87
2023/04/27 07:22:22;;;;;;;3.00;2.65;;;;;;;;;;5016775;28;20203;-85
2023/04/27 07:24:51;;;;;;;4.60;3.30;;;;;;;;;;5016669;28;20910;-85
2023/04/27 07:27:19;;;;;;;2.65;2.17;;;;;;;;;;5015824;28;20290;-85
2023/04/27 07:29:47;;;;;;;5.90;2.80;;;;;;;;;;5013824;28;20209;-86
2023/04/27 07:32:14;;;;;;;3.83;3.22;;;;;;;;;;5013799;28;20294;-85
2023/04/27 07:34:42;;;;;;;3.35;2.80;;;;;;;;;;5013762;28;20238;-85
2023/04/27 07:37:10;;;;;;;5.03;3.40;;;;;;;;;;5014411;28;20285;-86
2023/04/27 07:39:37;;;;;;;3.88;3.00;;;;;;;;;;5014152;28;20195;-85
2023/04/27 07:42:06;;;;;;;4.90;3.22;;;;;;;;;;5015289;28;20652;-85
2023/04/27 07:44:34;;;;;;;3.55;3.20;;;;;;;;;;5014172;28;20258;-84
2023/04/27 07:47:03;;;;;;;4.90;3.47;;;;;;;;;;5014413;28;20734;-85
2023/04/27 07:49:31;;;;;;;3.78;3.20;;;;;;;;;;5015357;28;20667;-84
2023/04/27 07:51:58;;;;;;;3.25;2.95;;;;;;;;;;5013906;28;20728;-83
2023/04/27 07:54:26;;;;;;;3.45;2.80;;;;;;;;;;5014904;28;20310;-85
2023/04/27 07:56:54;;;;;;;3.92;3.00;;;;;;;;;;5014754;28;20254;-85
2023/04/27 07:59:23;;;;;;;4.38;3.67;;;;;;;;;;5014836;28;20657;-84
2023/04/27 08:01:50;;;;;;;4.20;3.75;;;;;;;;;;5015557;28;20225;-85
2023/04/27 08:04:17;;;;;;;4.18;3.55;;;;;;;;;;5013636;28;20219;-85
2023/04/27 08:06:45;;;;;;;2.72;2.53;;;;;;;;;;5014082;28;20202;-85
2023/04/27 08:09:13;;;;;;;2.17;1.98;;;;;;;;;;5013470;28;20207;-85
2023/04/27 08:11:40;;;;;;;5.63;2.80;;;;;;;;;;5013112;28;20226;-85
2023/04/27 08:14:12;;;;;;;2.95;2.75;;;;;;;;;;5013624;28;20578;-84
2023/04/27 08:16:41;;;;;;;3.55;2.90;;;;;;;;;;5008802;28;20222;-84
2023/04/27 08:19:09;;;;;;;4.70;3.33;;;;;;;;;;4993533;28;20296;-85
2023/04/27 08:21:37;;;;;;;3.45;3.17;;;;;;;;;;4994656;28;20214;-84
2023/04/27 08:24:06;;;;;;;3.08;2.88;;;;;;;;;;4993776;28;20205;-84
2023/04/27 08:26:34;;;;;;;3.15;2.83;;;;;;;;;;4994814;28;20429;-84
2023/04/27 08:29:02;;;;;;;4.13;2.75;;;;;;;;;;4994784;28;20216;-85
2023/04/27 08:31:29;;;;;;;3.63;3.20;;;;;;;;;;4994048;28;20203;-84
2023/04/27 08:33:58;;;;;;;5.55;4.20;;;;;;;;;;4994751;28;20227;-85
2023/04/27 08:36:27;;;;;;;2.00;1.90;;;;;;;;;;5011540;28;20226;-84
2023/04/27 08:38:55;;;;;;;4.47;3.35;;;;;;;;;;5015725;28;20719;-85
2023/04/27 08:41:23;;;;;;;3.45;3.15;;;;;;;;;;5015845;28;20573;-85
2023/04/27 08:43:52;;;;;;;10.20;8.77;;;;;;;;;;5015197;28;20271;-85
2023/04/27 08:46:20;;;;;;;7.72;5.80;;;;;;;;;;5016026;28;20235;-85
2023/04/27 08:48:49;;;;;;;6.22;4.93;;;;;;;;;;5015983;28;20199;-84
2023/04/27 08:51:19;;;;;;;6.35;4.20;;;;;;;;;;5015563;28;20207;-85
2023/04/27 08:53:50;;;;;;;4.13;3.72;;;;;;;;;;5017717;28;20210;-84
2023/04/27 08:56:17;;;;;;;3.58;3.28;;;;;;;;;;5019163;28;20574;-85
2023/04/27 08:58:45;;;;;;;4.45;3.63;;;;;;;;;;5019187;28;20734;-84
2023/04/27 09:01:13;;;;;;;2.50;2.30;;;;;;;;;;5018911;28;20270;-84
2023/04/27 09:03:40;;;;;;;4.88;2.60;;;;;;;;;;5019179;28;20199;-85
2023/04/27 09:06:08;;;;;;;3.65;3.35;;;;;;;;;;5006612;28;20251;-85
2023/04/27 09:08:47;;;;;;;2.75;2.55;;;;;;;;;;5001923;28;20259;-85
2023/04/27 09:11:16;;;;;;;6.35;3.20;;;;;;;;;;5000958;28;20198;-85
2023/04/27 09:13:45;;;;;;;3.78;3.35;;;;;;;;;;5001815;28;20283;-84
2023/04/27 09:16:14;;;;;;;3.63;3.33;;;;;;;;;;5001635;28;20661;-85
2023/04/27 09:18:43;;;;;;;3.65;3.08;;;;;;;;;;5020143;28;20207;-85
2023/04/27 09:21:11;;;;;;;2.47;2.28;;;;;;;;;;5020119;28;20265;-85
2023/04/27 09:23:40;;;;;;;2.60;2.40;;;;;;;;;;5019740;28;20234;-85
2023/04/27 09:26:10;;;;;;;3.58;2.50;;;;;;;;;;5019719;28;20314;-85
2023/04/27 09:28:40;;;;;;;2.88;2.63;;;;;;;;;;5019909;28;20261;-85
2023/04/27 09:31:09;;;;;;;3.03;2.25;;;;;;;;;;5019677;28;20199;-84
2023/04/27 09:33:37;;;;;;;3.83;2.53;;;;;;;;;;5019845;28;20543;-85
2023/04/27 09:36:06;;;;;;;4.25;2.55;;;;;;;;;;5018399;28;20261;-84
2023/04/27 09:38:34;;;;;;;3.97;3.03;;;;;;;;;;5018925;28;20199;-84
2023/04/27 09:41:03;;;;;;;3.42;2.50;;;;;;;;;;5018812;28;20226;-85
2023/04/27 09:43:31;;;;;;;3.05;2.75;;;;;;;;;;5017956;28;20664;-85
2023/04/27 09:46:00;;;;;;;4.32;3.80;;;;;;;;;;5019205;28;20261;-85
2023/04/27 09:48:27;;;;;;;2.20;2.10;;;;;;;;;;5018679;28;20199;-84
2023/04/27 09:50:55;;;;;;;1.80;1.70;;;;;;;;;;5017268;28;20551;-86
2023/04/27 09:53:31;;;;;;;2.20;2.03;;;;;;;;;;5016534;28;20245;-85
2023/04/27 09:56:13;;;;;;;3.10;2.80;;;;;;;;;;5017894;28;20210;-85
2023/04/27 09:59:06;;;;;;;2.65;2.45;;;;;;;;;;5018327;28;20211;-85
2023/04/27 10:01:39;;;;;;;2.67;2.28;;;;;;;;;;5017125;28;20215;-85
2023/04/27 10:04:19;;;;;;;2.63;2.42;;;;;;;;;;5017076;28;20704;-85
2023/04/27 10:07:00;;;;;;;2.03;1.90;;;;;;;;;;5016769;28;20221;-86
2023/04/27 10:09:34;;;;;;;3.83;2.60;;;;;;;;;;5015776;28;20203;-85
2023/04/27 10:12:16;;;;;;;2.95;2.10;;;;;;;;;;5018159;28;20183;-85
2023/04/27 10:14:53;;;;;;;2.75;2.28;;;;;;;;;;5018866;28;20309;-85
2023/04/27 10:17:29;;;;;;;2.90;2.42;;;;;;;;;;5020013;28;20242;-85
2023/04/27 10:19:58;;;;;;;4.75;3.00;;;;;;;;;;5020201;28;20199;-85
2023/04/27 10:22:39;;;;;;;3.38;2.72;;;;;;;;;;5019294;28;20202;-84
2023/04/27 10:25:17;;;;;;;3.92;2.70;;;;;;;;;;5018609;28;20248;-85
2023/04/27 10:27:48;;;;;;;4.07;2.75;;;;;;;;;;5018267;28;20189;-85
2023/04/27 10:30:21;;;;;;;3.10;2.55;;;;;;;;;;5019052;28;20184;-85
2023/04/27 10:32:53;;;;;;;2.15;2.00;;;;;;;;;;5020516;28;20257;-85
2023/04/27 10:35:22;;;;;;;3.95;3.63;;;;;;;;;;5009257;28;20335;-86
2023/04/27 10:37:51;;;;;;;2.80;2.35;;;;;;;;;;4996331;28;20278;-85
2023/04/27 10:40:19;;;;;;;3.35;2.67;;;;;;;;;;4999353;28;20204;-85
2023/04/27 10:42:48;;;;;;;8.40;3.50;;;;;;;;;;4998499;28;20206;-85
2023/04/27 10:45:27;;;;;;;2.30;2.10;;;;;;;;;;4996977;28;20228;-85
2023/04/27 10:48:00;;;;;;;2.45;2.25;;;;;;;;;;5012534;28;20211;-84
2023/04/27 10:50:28;;;;;;;2.67;2.22;;;;;;;;;;5016125;28;20274;-85
2023/04/27 10:53:01;;;;;;;3.15;2.78;;;;;;;;;;5016423;28;20202;-84
2023/04/27 10:55:30;;;;;;;4.65;3.67;;;;;;;;;;5016250;28;20250;-85
2023/04/27 10:57:58;;;;;;;3.42;3.13;;;;;;;;;;5014872;28;20233;-85
2023/04/27 11:00:28;;;;;;;3.10;2.80;;;;;;;;;;5014806;28;20207;-86
2023/04/27 11:02:58;;;;;;;2.55;2.35;;;;;;;;;;5015338;28;20670;-86
2023/04/27 11:05:29;;;;;;;1.90;1.77;;;;;;;;;;5015337;28;20238;-85
2023/04/27 11:08:07;;;;;;;2.90;2.53;;;;;;;;;;5014191;28;20711;-85
2023/04/27 11:10:35;;;;;;;3.03;2.17;;;;;;;;;;5014332;28;20240;-87
2023/04/27 11:13:10;;;;;;;2.30;2.10;;;;;;;;;;5014191;28;20550;-85
2023/04/27 11:15:49;;;;;;;2.75;2.55;;;;;;;;;;5013169;28;20300;-88
2023/04/27 11:18:18;;;;;;;2.60;2.40;;;;;;;;;;5013446;28;20313;-86
2023/04/27 11:20:50;;;;;;;4.00;2.80;;;;;;;;;;5013802;28;20198;-89
2023/04/27 11:23:25;;;;;;;2.85;2.60;;;;;;;;;;5014013;28;20674;-87
2023/04/27 11:25:53;;;;;;;3.38;2.70;;;;;;;;;;5013327;28;20226;-87
2023/04/27 11:28:20;;;;;;;1.90;1.80;;;;;;;;;;5013357;28;20286;-87
2023/04/27 11:30:56;;;;;;;1.85;1.73;;;;;;;;;;5013293;28;20199;-86
2023/04/27 11:33:24;;;;;;;2.38;2.17;;;;;;;;;;5020151;28;20321;-85
2023/04/27 11:35:52;;;;;;;2.80;2.50;;;;;;;;;;5026117;28;20227;-84
2023/04/27 11:38:20;;;;;;;4.30;2.72;;;;;;;;;;5024808;28;20290;-86
2023/04/27 11:40:58;;;;;;;4.10;3.10;;;;;;;;;;5024516;28;20214;-85
2023/04/27 11:43:27;;;;;;;3.40;2.40;;;;;;;;;;5025266;28;20278;-85
2023/04/27 11:45:57;;;;;;;3.80;3.25;;;;;;;;;;5024683;28;20233;-84
2023/04/27 11:48:24;;;;;;;3.75;2.60;;;;;;;;;;5030594;28;20645;-84
2023/04/27 11:50:52;;;;;;;3.50;3.20;;;;;;;;;;5037840;28;20497;-85
2023/04/27 11:53:31;;;;;;;3.22;2.97;;;;;;;;;;5045546;28;20202;-84
2023/04/27 11:56:01;;;;;;;4.10;2.72;;;;;;;;;;5044685;28;20228;-85
2023/04/27 11:58:29;;;;;;;4.88;4.45;;;;;;;;;;5044534;28;20222;-83
2023/04/27 12:00:58;;;;;;;9.15;2.72;;;;;;;;;;5044756;28;20226;-84
2023/04/27 12:03:27;;;;;;;3.85;3.45;;;;;;;;;;5044623;28;20274;-85
2023/04/27 12:05:55;;;;;;;4.00;3.67;;;;;;;;;;5033302;28;20321;-84
2023/04/27 12:08:22;;;;;;;5.03;3.50;;;;;;;;;;5024904;28;20209;-84
2023/04/27 12:10:50;;;;;;;3.10;2.80;;;;;;;;;;5025260;28;20674;-85
2023/04/27 12:13:18;;;;;;;3.83;3.35;;;;;;;;;;5024473;28;20210;-84
2023/04/27 12:15:45;;;;;;;3.00;2.17;;;;;;;;;;5024780;28;20250;-85
2023/04/27 12:18:14;;;;;;;2.83;2.53;;;;;;;;;;5024470;28;20250;-84
2023/04/27 12:20:42;;;;;;;2.80;2.60;;;;;;;;;;5024713;28;20207;-85
2023/04/27 12:23:10;;;;;;;3.53;3.00;;;;;;;;;;5024898;28;20222;-84
2023/04/27 12:25:39;;;;;;;4.18;2.80;;;;;;;;;;5023990;28;20276;-84
2023/04/27 12:28:07;;;;;;;5.47;3.00;;;;;;;;;;5026669;28;20253;-84
2023/04/27 12:30:35;;;;;;;3.25;2.92;;;;;;;;;;5027085;28;20230;-84
2023/04/27 12:33:08;;;;;;;3.35;2.80;;;;;;;;;;5027464;28;20206;-85
2023/04/27 12:35:37;;;;;;;3.90;2.78;;;;;;;;;;5027267;28;20319;-85
2023/04/27 12:38:05;;;;;;;3.13;2.55;;;;;;;;;;5027016;28;20622;-84
2023/04/27 12:40:32;;;;;;;3.25;2.67;;;;;;;;;;5026927;28;20207;-84
2023/04/27 12:43:01;;;;;;;3.65;3.10;;;;;;;;;;5027486;28;20267;-83
2023/04/27 12:45:28;;;;;;;5.20;3.25;;;;;;;;;;5023636;28;20227;-88
2023/04/27 12:47:56;;;;;;;4.00;3.60;;;;;;;;;;5016419;28;20297;-88
2023/04/27 12:50:23;;;;;;;4.20;3.78;;;;;;;;;;5016153;28;20210;-88
2023/04/27 12:52:52;;;;;;;3.72;3.25;;;;;;;;;;5016225;28;20254;-88
2023/04/27 12:55:20;;;;;;;3.25;2.65;;;;;;;;;;5016195;28;20314;-88
2023/04/27 12:57:47;;;;;;;2.42;2.25;;;;;;;;;;5016527;28;20306;-88
2023/04/27 13:00:16;;;;;;;2.78;2.20;;;;;;;;;;5016717;28;20699;-88
2023/04/27 13:02:44;;;;;;;2.72;2.50;;;;;;;;;;5015736;28;20203;-88
2023/04/27 13:05:12;;;;;;;2.50;2.30;;;;;;;;;;5009852;28;20262;-88
2023/04/27 13:07:40;;;;;;;2.70;2.47;;;;;;;;;;4996466;28;20629;-88
2023/04/27 13:10:10;;;;;;;3.08;2.80;;;;;;;;;;4996676;28;20294;-88
2023/04/27 13:12:37;;;;;;;2.70;2.35;;;;;;;;;;4996818;28;20212;-88
2023/04/27 13:15:11;;;;;;;2.50;2.30;;;;;;;;;;4996649;28;20663;-88
2023/04/27 13:17:38;;;;;;;3.25;3.05;;;;;;;;;;5009904;28;20207;-88
2023/04/27 13:20:08;;;;;;;3.05;2.50;;;;;;;;;;5015809;28;20788;-88
2023/04/27 13:22:36;;;;;;;3.33;3.05;;;;;;;;;;5015887;28;20210;-89
2023/04/27 13:25:04;;;;;;;3.53;3.22;;;;;;;;;;5015659;28;20633;-88
2023/04/27 13:27:33;;;;;;;2.70;2.50;;;;;;;;;;5015971;28;20282;-88
2023/04/27 13:30:01;;;;;;;4.10;2.63;;;;;;;;;;5015601;28;20203;-89
2023/04/27 13:32:28;;;;;;;3.33;3.08;;;;;;;;;;5015747;28;20274;-88
2023/04/27 13:34:56;;;;;;;2.85;2.65;;;;;;;;;;5015982;28;20318;-88
2023/04/27 13:37:24;;;;;;;2.88;2.67;;;;;;;;;;5015204;28;20230;-88
2023/04/27 13:39:51;;;;;;;3.63;3.15;;;;;;;;;;5015471;28;20223;-88
2023/04/27 13:42:19;;;;;;;2.58;2.38;;;;;;;;;;5015591;28;20289;-87
2023/04/27 13:44:48;;;;;;;2.33;2.13;;;;;;;;;;5015317;28;20246;-88
2023/04/27 13:47:15;;;;;;;3.50;2.92;;;;;;;;;;5015386;28;20294;-88
2023/04/27 13:49:43;;;;;;;4.25;3.70;;;;;;;;;;5015327;28;20642;-89
2023/04/27 13:52:10;;;;;;;2.63;2.42;;;;;;;;;;5015631;28;20712;-88
2023/04/27 13:54:38;;;;;;;3.08;2.83;;;;;;;;;;5015539;28;20238;-88
2023/04/27 13:57:05;;;;;;;2.58;2.28;;;;;;;;;;5015221;28;20230;-87
2023/04/27 13:59:33;;;;;;;4.63;3.38;;;;;;;;;;5015597;28;20287;-89
2023/04/27 14:02:01;;;;;;;3.33;3.00;;;;;;;;;;5015714;28;20295;-90
2023/04/27 14:04:29;;;;;;;5.80;3.28;;;;;;;;;;5015564;28;20251;-90
2023/04/27 14:06:56;;;;;;;4.03;2.90;;;;;;;;;;5015323;28;20203;-90
2023/04/27 14:09:25;;;;;;;6.28;2.97;;;;;;;;;;5014841;28;20290;-89
2023/04/27 14:11:53;;;;;;;3.67;3.38;;;;;;;;;;5015447;28;20211;-89
2023/04/27 14:14:20;;;;;;;3.90;3.08;;;;;;;;;;5015398;28;20242;-90
2023/04/27 14:16:49;;;;;;;4.35;2.85;;;;;;;;;;5014957;28;20747;-89
2023/04/27 14:19:19;;;;;;;1.98;1.85;;;;;;;;;;5014494;28;20250;-89
2023/04/27 14:21:46;;;;;;;2.80;2.60;;;;;;;;;;5015479;28;20199;-90
2023/04/27 14:24:14;;;;;;;3.90;3.35;;;;;;;;;;5015141;28;20218;-90
2023/04/27 14:26:42;;;;;;;3.38;3.08;;;;;;;;;;5015133;28;20286;-89
2023/04/27 14:29:10;;;;;;;3.10;2.80;;;;;;;;;;5015390;28;20222;-90
2023/04/27 14:31:38;;;;;;;3.13;2.88;;;;;;;;;;5014860;28;20540;-89
2023/04/27 14:34:05;;;;;;;3.55;2.83;;;;;;;;;;5014642;28;20214;-89
2023/04/27 14:36:35;;;;;;;2.67;2.40;;;;;;;;;;5014753;28;20218;-90
2023/04/27 14:39:03;;;;;;;2.83;2.50;;;;;;;;;;5014630;28;20310;-89
2023/04/27 14:41:31;;;;;;;3.50;3.17;;;;;;;;;;5014806;28;20254;-89
2023/04/27 14:43:58;;;;;;;5.53;2.97;;;;;;;;;;5015176;28;20213;-90
2023/04/27 14:46:26;;;;;;;3.83;3.05;;;;;;;;;;5014837;28;20269;-89
2023/04/27 14:48:53;;;;;;;3.28;2.60;;;;;;;;;;5014000;28;20642;-89
2023/04/27 14:51:21;;;;;;;4.82;2.78;;;;;;;;;;5014549;28;20285;-89